createdAt,value
2019-05-10T00:01:15.531Z,0.75
2019-05-10T00:04:02.931Z,0.67
2019-05-10T00:06:50.398Z,0.60
2019-05-10T00:09:21.600Z,0.90
2019-05-10T00:12:07.301Z,0.80
2019-05-10T00:15:01.530Z,0.70
2019-05-10T00:17:31.154Z,0.65
2019-05-10T00:20:00.576Z,0.72
2019-05-10T00:22:30.382Z,0.80
2019-05-10T00:25:04.707Z,0.80
2019-05-10T00:27:30.360Z,0.90
2019-05-10T00:29:59.772Z,0.90
2019-05-10T00:32:29.483Z,0.90
2019-05-10T00:34:59.345Z,0.80
2019-05-10T00:37:29.008Z,0.70
2019-05-10T00:39:58.429Z,0.72
2019-05-10T00:42:27.413Z,0.70
2019-05-10T00:44:59.050Z,0.70
2019-05-10T00:47:28.298Z,0.70
2019-05-10T00:49:57.414Z,0.80
2019-05-10T00:52:28.230Z,0.80
2019-05-10T00:54:57.966Z,0.93
2019-05-10T00:57:27.990Z,0.75
2019-05-10T00:59:57.319Z,0.90
2019-05-10T01:02:26.637Z,0.85
2019-05-10T01:04:56.379Z,0.88
2019-05-10T01:07:25.442Z,0.80
2019-05-10T01:09:54.690Z,0.80
2019-05-10T01:12:24.533Z,0.62
2019-05-10T01:14:54.212Z,0.80
2019-05-10T01:17:23.290Z,0.80
2019-05-10T01:19:52.895Z,0.70
2019-05-10T01:22:23.704Z,0.80
2019-05-10T01:24:53.121Z,0.93
2019-05-10T01:27:22.727Z,0.88
2019-05-10T01:29:51.961Z,0.88
2019-05-10T01:32:21.345Z,0.88
2019-05-10T01:34:51.168Z,0.80
2019-05-10T01:37:21.125Z,0.70
2019-05-10T01:39:50.518Z,0.90
2019-05-10T01:42:19.915Z,0.80
2019-05-10T01:44:50.085Z,0.90
2019-05-10T01:47:19.400Z,1.10
2019-05-10T01:49:48.769Z,0.80
2019-05-10T01:52:18.145Z,0.80
2019-05-10T01:54:47.804Z,1.00
2019-05-10T01:57:16.877Z,0.80
2019-05-10T01:59:46.554Z,0.90
2019-05-10T02:02:15.668Z,1.00
2019-05-10T02:04:47.529Z,0.95
2019-05-10T02:07:16.898Z,0.90
2019-05-10T02:09:45.844Z,0.82
2019-05-10T02:12:15.551Z,0.80
2019-05-10T02:14:45.790Z,0.93
2019-05-10T02:17:14.849Z,0.90
2019-05-10T02:19:43.814Z,0.90
2019-05-10T02:22:13.778Z,0.90
2019-05-10T02:24:44.566Z,0.88
2019-05-10T02:27:13.671Z,0.80
2019-05-10T02:29:43.067Z,0.93
2019-05-10T02:32:13.041Z,1.10
2019-05-10T02:34:42.391Z,1.00
2019-05-10T02:37:12.066Z,1.00
2019-05-10T02:39:41.752Z,0.88
2019-05-10T02:42:11.466Z,0.90
2019-05-10T02:44:41.274Z,0.77
2019-05-10T02:47:10.980Z,0.90
2019-05-10T02:49:39.991Z,0.90
2019-05-10T02:52:09.328Z,0.90
2019-05-10T02:54:38.824Z,0.90
2019-05-10T02:57:09.266Z,1.00
2019-05-10T02:59:39.087Z,1.00
2019-05-10T03:02:08.838Z,0.90
2019-05-10T03:04:38.069Z,0.98
2019-05-10T03:07:07.309Z,1.00
2019-05-10T03:09:37.570Z,0.87
2019-05-10T03:12:30.654Z,0.80
2019-05-10T03:15:02.804Z,0.80
2019-05-10T03:17:34.959Z,0.83
2019-05-10T03:20:04.478Z,1.27
2019-05-10T03:22:38.451Z,0.70
2019-05-10T03:25:07.886Z,1.10
2019-05-10T03:27:37.676Z,1.20
2019-05-10T03:30:07.079Z,0.70
2019-05-10T03:32:37.045Z,0.90
2019-05-10T03:35:07.296Z,1.00
2019-05-10T03:37:36.833Z,1.00
2019-05-10T03:40:08.659Z,1.03
2019-05-10T03:42:37.818Z,0.93
2019-05-10T03:45:07.592Z,1.10
2019-05-10T03:47:37.532Z,1.10
2019-05-10T03:50:06.777Z,1.67
2019-05-10T03:52:37.143Z,1.12
2019-05-10T03:55:09.792Z,1.02
2019-05-10T03:57:39.307Z,0.95
2019-05-10T04:00:08.516Z,1.00
2019-05-10T04:02:38.312Z,1.10
2019-05-10T04:05:08.224Z,1.17
2019-05-10T04:07:37.856Z,1.20
2019-05-10T04:10:07.368Z,1.20
2019-05-10T04:12:38.432Z,1.30
2019-05-10T04:15:09.224Z,1.30
2019-05-10T04:17:41.594Z,1.10
2019-05-10T04:20:11.306Z,1.42
2019-05-10T04:22:41.068Z,1.50
2019-05-10T04:25:13.880Z,1.00
2019-05-10T04:27:43.412Z,1.30
2019-05-10T04:30:13.031Z,1.27
2019-05-10T04:32:42.690Z,1.30
2019-05-10T04:35:13.147Z,1.17
2019-05-10T04:37:43.033Z,1.20
2019-05-10T04:40:12.592Z,1.02
2019-05-10T04:42:42.085Z,1.05
2019-05-10T04:45:11.640Z,1.40
2019-05-10T04:47:42.066Z,1.07
2019-05-10T04:50:11.288Z,1.20
2019-05-10T04:52:41.266Z,1.20
2019-05-10T04:55:10.986Z,1.20
2019-05-10T04:57:49.909Z,1.30
2019-05-10T05:00:12.015Z,1.30
2019-05-10T05:02:42.073Z,1.55
2019-05-10T05:05:11.315Z,1.92
2019-05-10T05:07:41.424Z,1.40
2019-05-10T05:10:25.816Z,1.20
2019-05-10T05:12:55.804Z,1.20
2019-05-10T05:15:25.264Z,1.40
2019-05-10T05:17:54.963Z,1.35
2019-05-10T05:20:24.936Z,1.17
2019-05-10T05:25:57.684Z,1.10
2019-05-10T05:28:26.786Z,1.35
2019-05-10T05:31:19.173Z,1.45
2019-05-10T05:33:50.569Z,1.35
2019-05-10T05:36:20.534Z,1.30
2019-05-10T05:46:50.724Z,1.30
2019-05-10T05:50:18.163Z,1.30
2019-05-10T05:53:27.135Z,1.50
2019-05-10T05:55:52.900Z,1.60
2019-05-10T05:58:27.194Z,1.40
2019-05-10T06:00:55.861Z,2.10
2019-05-10T06:03:29.725Z,1.45
2019-05-10T06:05:56.898Z,1.10
2019-05-10T06:08:29.900Z,1.30
2019-05-10T06:11:19.703Z,1.47
2019-05-10T06:13:52.583Z,1.20
2019-05-10T06:16:23.156Z,1.52
2019-05-10T06:18:52.410Z,1.20
2019-05-10T06:21:24.507Z,1.10
2019-05-10T06:23:59.388Z,1.20
2019-05-10T06:26:29.168Z,1.10
2019-05-10T06:29:03.690Z,1.50
2019-05-10T06:31:30.633Z,1.50
2019-05-10T06:33:59.958Z,1.47
2019-05-10T06:36:29.808Z,1.00
2019-05-10T06:39:01.970Z,1.00
2019-05-10T06:41:32.623Z,1.20
2019-05-10T06:44:04.447Z,2.13
2019-05-10T06:46:33.665Z,1.20
2019-05-10T06:49:24.310Z,1.40
2019-05-10T06:51:54.053Z,1.63
2019-05-10T06:54:24.599Z,1.03
2019-05-10T06:56:54.580Z,0.83
2019-05-10T06:59:26.202Z,2.00
2019-05-10T07:01:55.504Z,1.40
2019-05-10T07:04:25.248Z,1.00
2019-05-10T07:06:54.762Z,0.90
2019-05-10T07:09:24.134Z,1.10
2019-05-10T07:11:54.019Z,1.30
2019-05-10T07:14:27.159Z,1.00
2019-05-10T07:16:56.474Z,0.70
2019-05-10T07:19:28.906Z,0.90
2019-05-10T07:21:58.955Z,2.00
2019-05-10T07:24:29.316Z,1.30
2019-05-10T07:27:02.238Z,1.17
2019-05-10T07:29:35.944Z,1.23
2019-05-10T07:32:01.245Z,1.30
2019-05-10T07:34:33.373Z,1.30
2019-05-10T07:37:02.742Z,0.80
2019-05-10T07:39:34.965Z,1.00
2019-05-10T07:42:06.711Z,1.10
2019-05-10T07:44:35.338Z,1.10
2019-05-10T07:47:05.438Z,0.70
2019-05-10T07:49:35.506Z,0.70
2019-05-10T07:52:05.179Z,0.67
2019-05-10T08:07:07.454Z,0.80
2019-05-10T08:09:37.188Z,0.98
2019-05-10T08:12:12.543Z,1.00
2019-05-10T08:14:44.381Z,1.00
2019-05-10T08:17:11.368Z,0.95
2019-05-10T08:19:40.798Z,1.10
2019-05-10T08:22:12.901Z,0.85
2019-05-10T08:24:46.416Z,1.00
2019-05-10T08:27:14.770Z,1.20
2019-05-10T08:29:44.454Z,1.82
2019-05-10T08:32:13.702Z,1.10
2019-05-10T08:34:51.702Z,0.90
2019-05-10T08:37:19.287Z,1.00
2019-05-10T11:12:26.435Z,1.67
2019-05-10T11:14:56.631Z,1.80
2019-05-10T11:17:26.328Z,2.10
2019-05-10T11:19:55.530Z,1.97
2019-05-10T11:22:27.404Z,2.30
2019-05-10T11:25:01.354Z,2.00
2019-05-10T11:27:27.451Z,2.20
2019-05-10T12:27:29.377Z,0.80
2019-05-10T12:29:59.511Z,0.57
2019-05-10T12:32:27.122Z,0.83
2019-05-10T12:34:57.264Z,0.67
2019-05-10T13:02:21.597Z,1.00
2019-05-10T13:04:52.706Z,0.90
2019-05-10T13:17:18.515Z,0.90
2019-05-10T13:19:52.746Z,0.73
2019-05-10T13:22:19.319Z,0.67
2019-05-10T13:32:20.429Z,0.80
2019-05-10T13:34:47.842Z,0.60
2019-05-10T13:37:23.235Z,0.90
2019-05-10T13:39:48.622Z,1.03
2019-05-10T13:42:18.626Z,0.80
2019-05-10T13:44:48.923Z,0.93
2019-05-10T13:47:18.414Z,1.10
2019-05-10T13:49:49.340Z,0.85
2019-05-10T13:52:19.147Z,0.70
2019-05-10T13:54:48.923Z,0.70
2019-05-10T13:57:18.581Z,0.80
2019-05-10T13:59:54.399Z,1.00
2019-05-10T14:02:31.943Z,0.70
2019-05-10T14:04:52.603Z,1.00
2019-05-10T14:07:21.998Z,0.80
2019-05-10T14:09:51.590Z,1.30
2019-05-10T14:12:23.418Z,1.05
2019-05-10T14:14:55.610Z,1.17
2019-05-10T14:17:24.383Z,0.70
2019-05-10T14:19:53.505Z,1.25
2019-05-10T14:22:23.125Z,0.80
2019-05-10T14:24:54.385Z,1.50
2019-05-10T14:27:24.027Z,0.90
2019-05-10T14:29:53.657Z,1.10
2019-05-10T14:32:27.016Z,1.10
2019-05-10T14:34:56.831Z,0.90
2019-05-10T14:37:26.590Z,1.00
2019-05-10T14:39:56.090Z,0.80
2019-05-10T14:42:31.311Z,0.80
2019-05-10T14:44:56.784Z,1.30
2019-05-10T14:47:26.986Z,0.80
2019-05-10T14:49:57.392Z,1.05
2019-05-10T14:52:26.783Z,1.95
2019-05-10T14:54:58.626Z,1.60
2019-05-10T14:57:27.978Z,1.10
2019-05-10T14:59:57.344Z,1.10
2019-05-10T15:02:27.431Z,1.22
2019-05-10T15:05:00.579Z,0.90
2019-05-10T15:07:28.090Z,1.00
2019-05-10T15:10:00.581Z,0.95
2019-05-10T15:12:28.455Z,1.17
2019-05-10T15:14:58.176Z,0.80
2019-05-10T15:17:30.018Z,0.93
2019-05-10T15:20:00.078Z,1.22
2019-05-10T15:22:30.258Z,1.30
2019-05-10T15:25:01.242Z,1.12
2019-05-10T15:27:30.615Z,0.93
2019-05-10T15:30:05.164Z,1.00
2019-05-10T15:32:31.981Z,1.00
2019-05-10T15:35:07.562Z,1.10
2019-05-10T15:37:33.365Z,1.10
2019-05-10T15:40:06.064Z,0.80
2019-05-10T15:42:36.345Z,1.20
2019-05-10T15:45:12.385Z,1.30
2019-05-10T15:47:49.977Z,1.10
2019-05-10T15:50:09.258Z,2.62
2019-05-10T15:52:39.630Z,1.35
2019-05-10T15:55:10.433Z,1.30
2019-05-10T15:57:39.946Z,1.02
2019-05-10T16:00:10.256Z,1.20
2019-05-10T16:02:39.869Z,1.87
2019-05-10T16:05:23.987Z,1.10
2019-05-10T16:07:40.919Z,1.12
2019-05-10T16:10:11.007Z,1.62
2019-05-10T16:12:43.001Z,1.00
2019-05-10T16:15:19.958Z,1.20
2019-05-10T16:17:45.680Z,1.37
2019-05-10T16:20:15.207Z,1.32
2019-05-10T16:22:44.896Z,1.27
2019-05-10T16:25:14.503Z,1.32
2019-05-10T16:27:44.973Z,1.30
2019-05-10T16:30:17.875Z,1.20
2019-05-10T16:32:46.708Z,1.42
2019-05-10T16:35:16.231Z,1.15
2019-05-10T16:37:49.372Z,0.90
2019-05-10T16:40:18.671Z,1.20
2019-05-10T16:42:48.097Z,0.80
2019-05-10T16:45:18.885Z,0.60
2019-05-10T16:47:48.451Z,1.00
2019-05-10T16:50:17.956Z,0.80
2019-05-10T16:52:47.519Z,1.50
2019-05-10T16:55:16.964Z,0.90
2019-05-10T16:57:46.083Z,0.90
2019-05-10T17:00:16.269Z,1.10
2019-05-10T17:02:45.606Z,1.20
2019-05-10T17:05:15.817Z,1.10
2019-05-10T17:07:47.783Z,0.70
2019-05-10T17:10:19.012Z,1.02
2019-05-10T17:12:48.690Z,0.82
2019-05-10T17:15:17.897Z,1.37
2019-05-10T17:17:47.433Z,1.10
2019-05-10T17:20:16.646Z,0.80
2019-05-10T17:22:46.073Z,1.10
2019-05-10T17:25:15.561Z,1.22
2019-05-10T17:27:50.381Z,0.93
2019-05-10T17:30:16.365Z,1.82
2019-05-10T17:32:46.026Z,0.90
2019-05-10T17:35:15.596Z,1.00
2019-05-10T17:37:45.038Z,0.90
2019-05-10T17:40:15.085Z,1.10
2019-05-10T17:42:44.951Z,1.65
2019-05-10T17:45:14.423Z,1.35
2019-05-10T17:47:44.236Z,1.20
2019-05-10T17:50:14.148Z,1.10
2019-05-10T17:52:44.587Z,1.15
2019-05-10T17:55:16.965Z,1.07
2019-05-10T17:57:48.713Z,1.10
2019-05-10T18:00:17.845Z,1.20
2019-05-10T18:02:48.208Z,1.20
2019-05-10T18:05:17.550Z,1.17
2019-05-10T18:07:47.046Z,1.22
2019-05-10T18:10:19.635Z,1.20
2019-05-10T18:12:48.842Z,1.45
2019-05-10T18:15:18.460Z,1.85
2019-05-10T18:17:47.565Z,1.40
2019-05-10T18:20:16.695Z,1.20
2019-05-10T18:22:46.191Z,1.52
2019-05-10T18:25:20.253Z,1.22
2019-05-10T18:27:47.638Z,1.30
2019-05-10T18:30:17.154Z,1.50
2019-05-10T18:32:46.630Z,1.60
2019-05-10T18:35:17.046Z,2.60
2019-05-10T18:37:46.279Z,1.70
2019-05-10T18:40:16.006Z,2.30
2019-05-10T18:42:46.463Z,1.60
2019-05-10T18:45:16.232Z,1.70
2019-05-10T18:47:45.698Z,1.40
2019-05-10T18:50:14.930Z,2.00
2019-05-10T18:52:44.073Z,2.10
2019-05-10T18:55:13.299Z,1.90
2019-05-10T18:57:45.313Z,1.43
2019-05-10T19:00:17.486Z,1.55
2019-05-10T19:02:49.787Z,1.80
2019-05-10T19:05:18.572Z,1.50
2019-05-10T19:08:01.479Z,2.00
2019-05-10T19:10:18.793Z,2.00
2019-05-10T19:12:59.924Z,1.87
2019-05-10T19:15:20.956Z,2.03
2019-05-10T19:17:50.713Z,1.87
2019-05-10T19:20:20.407Z,1.98
2019-05-10T19:22:49.507Z,2.10
2019-05-10T19:25:18.590Z,1.77
2019-05-10T19:27:50.698Z,2.10
2019-05-10T19:30:22.490Z,1.60
2019-05-10T19:32:56.342Z,1.50
2019-05-10T19:35:24.603Z,1.70
2019-05-10T19:37:54.818Z,1.72
2019-05-10T19:40:23.992Z,1.85
2019-05-10T19:42:53.458Z,2.20
2019-05-10T19:45:22.852Z,2.00
2019-05-10T19:47:55.746Z,1.98
2019-05-10T19:50:31.045Z,1.82
2019-05-10T19:52:58.362Z,2.15
2019-05-10T19:55:26.480Z,2.00
2019-05-10T19:57:56.620Z,2.15
2019-05-10T20:00:26.702Z,2.10
2019-05-10T20:02:56.604Z,2.20
2019-05-10T20:05:26.276Z,2.12
2019-05-10T20:07:56.442Z,2.33
2019-05-10T20:10:25.834Z,2.72
2019-05-10T20:12:55.183Z,1.98
2019-05-10T20:15:24.545Z,2.62
2019-05-10T20:17:55.052Z,2.00
2019-05-10T20:20:24.483Z,2.30
2019-05-10T20:22:53.560Z,2.17
2019-05-10T20:25:24.983Z,2.33
2019-05-10T20:27:54.148Z,2.40
2019-05-10T20:30:25.838Z,2.35
2019-05-10T20:32:59.920Z,2.50
2019-05-10T20:35:29.884Z,2.10
2019-05-10T20:38:02.457Z,2.20
2019-05-10T20:40:30.666Z,2.10
2019-05-10T20:43:04.154Z,2.20
2019-05-10T20:45:34.090Z,2.05
2019-05-10T20:48:03.912Z,1.90
2019-05-10T20:50:33.678Z,1.90
2019-05-10T20:53:03.047Z,2.20
2019-05-10T20:55:33.017Z,2.02
2019-05-10T20:58:02.563Z,2.45
2019-05-10T21:00:31.707Z,2.10
2019-05-10T21:03:04.372Z,2.40
2019-05-10T21:05:34.686Z,2.87
2019-05-10T21:08:16.156Z,2.60
2019-05-10T21:10:37.606Z,3.10
2019-05-10T21:13:09.854Z,2.70
2019-05-10T21:15:38.957Z,2.37
2019-05-10T21:18:08.382Z,2.80
2019-05-10T21:20:37.507Z,2.65
2019-05-10T21:23:07.626Z,2.37
2019-05-10T21:25:37.700Z,1.80
2019-05-10T21:28:07.319Z,2.20
2019-05-10T21:30:38.430Z,1.93
2019-05-10T21:33:08.644Z,1.93
2019-05-10T21:35:37.830Z,2.10
2019-05-10T21:38:09.981Z,2.30
2019-05-10T21:40:41.858Z,1.95
2019-05-10T21:43:11.278Z,1.87
2019-05-10T21:45:43.512Z,1.90
2019-05-10T21:48:13.150Z,1.92
2019-05-10T21:50:42.634Z,2.10
2019-05-10T21:53:11.765Z,2.00
2019-05-10T21:55:41.268Z,1.98
2019-05-10T21:58:11.239Z,1.90
2019-05-10T22:00:43.600Z,1.80
2019-05-10T22:03:13.156Z,2.00
2019-05-10T22:05:42.486Z,2.02
2019-05-10T22:08:11.835Z,2.10
2019-05-10T22:10:41.715Z,1.85
2019-05-10T22:13:11.098Z,2.05
2019-05-10T22:15:40.810Z,2.00
2019-05-10T22:18:10.305Z,1.93
2019-05-10T22:20:40.083Z,2.08
2019-05-10T22:23:09.888Z,2.00
2019-05-10T22:25:39.354Z,2.10
2019-05-10T22:28:09.942Z,1.90
2019-05-10T22:30:39.252Z,1.98
2019-05-10T22:33:08.407Z,2.20
2019-05-10T22:35:38.246Z,2.08
2019-05-10T22:38:07.869Z,2.05
2019-05-10T22:40:38.208Z,2.15
2019-05-10T22:43:07.704Z,2.50
2019-05-10T22:45:37.383Z,2.30
2019-05-10T22:48:06.943Z,2.20
2019-05-10T22:50:36.271Z,2.20
2019-05-10T22:53:06.656Z,2.55
2019-05-10T22:55:36.558Z,2.62
2019-05-10T22:58:06.429Z,2.47
2019-05-10T23:00:36.115Z,2.45
2019-05-10T23:03:05.287Z,2.42
2019-05-10T23:05:35.542Z,2.58
2019-05-10T23:08:05.339Z,2.60
2019-05-10T23:10:34.925Z,2.70
2019-05-10T23:13:04.530Z,2.65
2019-05-10T23:15:34.313Z,2.50
2019-05-10T23:18:04.114Z,2.80
2019-05-10T23:20:33.859Z,2.90
2019-05-10T23:23:03.582Z,2.83
2019-05-10T23:25:33.250Z,2.80
2019-05-10T23:28:02.770Z,2.70
2019-05-10T23:30:34.305Z,2.60
2019-05-10T23:33:03.786Z,2.70
2019-05-10T23:35:38.611Z,2.62
2019-05-10T23:38:12.295Z,2.55
2019-05-10T23:40:44.113Z,2.50
2019-05-10T23:43:14.504Z,2.33
2019-05-10T23:45:45.943Z,2.35
2019-05-10T23:48:15.557Z,1.95
2019-05-10T23:50:44.747Z,1.90
2019-05-10T23:53:14.405Z,1.90
2019-05-10T23:55:43.872Z,1.92
2019-05-10T23:58:15.445Z,2.08
